createdAt,value
2019-04-06T00:01:46.527Z,40.30
2019-04-06T00:04:18.430Z,41.28
2019-04-06T00:07:00.313Z,41.25
2019-04-06T00:09:32.568Z,40.05
2019-04-06T00:12:05.064Z,37.73
2019-04-06T00:14:50.691Z,39.48
2019-04-06T00:17:22.954Z,39.15
2019-04-06T00:19:54.900Z,37.45
2019-04-06T00:22:27.234Z,38.92
2019-04-06T00:24:59.531Z,36.05
2019-04-06T00:27:31.805Z,36.90
2019-04-06T00:30:23.563Z,37.48
2019-04-06T00:32:57.960Z,38.73
2019-04-06T00:35:30.393Z,36.08
2019-04-06T00:38:02.835Z,37.23
2019-04-06T00:40:35.524Z,39.67
2019-04-06T00:43:09.432Z,39.78
2019-04-06T00:45:41.762Z,38.80
2019-04-06T00:48:13.768Z,39.10
2019-04-06T00:50:46.694Z,38.85
2019-04-06T00:53:18.864Z,38.95
2019-04-06T00:55:55.760Z,38.20
2019-04-06T00:58:25.589Z,36.08
2019-04-06T01:00:57.911Z,35.95
2019-04-06T01:03:30.027Z,34.73
2019-04-06T01:06:01.945Z,35.23
2019-04-06T01:08:34.215Z,35.45
2019-04-06T01:11:06.820Z,36.20
2019-04-06T01:13:59.250Z,35.68
2019-04-06T01:16:32.109Z,32.55
2019-04-06T01:19:04.896Z,34.63
2019-04-06T01:21:36.945Z,32.58
2019-04-06T01:24:09.362Z,34.90
2019-04-06T01:26:41.664Z,32.58
2019-04-06T01:29:13.875Z,30.68
2019-04-06T01:31:46.661Z,29.63
2019-04-06T01:34:18.456Z,27.55
2019-04-06T01:36:51.400Z,26.27
2019-04-06T01:39:23.705Z,23.77
2019-04-06T01:41:55.973Z,23.55
2019-04-06T01:44:28.169Z,22.93
2019-04-06T01:47:00.394Z,22.80
2019-04-06T01:49:32.554Z,22.62
2019-04-06T01:52:07.012Z,21.55
2019-04-06T01:54:39.076Z,21.45
2019-04-06T01:57:31.329Z,23.47
2019-04-06T02:00:04.088Z,24.55
2019-04-06T02:02:37.512Z,22.27
2019-04-06T02:05:10.818Z,22.90
2019-04-06T02:07:42.844Z,23.00
2019-04-06T02:10:16.199Z,21.37
2019-04-06T02:12:48.357Z,21.25
2019-04-06T02:15:20.208Z,20.48
2019-04-06T02:17:52.483Z,21.10
2019-04-06T02:20:24.596Z,20.45
2019-04-06T02:22:56.667Z,20.32
2019-04-06T02:25:29.278Z,20.43
2019-04-06T02:28:01.423Z,19.82
2019-04-06T02:30:34.976Z,19.42
2019-04-06T02:33:08.618Z,18.32
2019-04-06T02:35:42.539Z,18.12
2019-04-06T02:38:15.550Z,18.15
2019-04-06T02:40:49.156Z,18.55
2019-04-06T02:43:22.847Z,18.52
2019-04-06T02:45:55.950Z,20.23
2019-04-06T02:48:59.745Z,19.40
2019-04-06T02:51:31.923Z,18.95
2019-04-06T02:54:04.907Z,18.92
2019-04-06T02:56:45.606Z,19.70
2019-04-06T02:59:12.012Z,19.67
2019-04-06T03:01:44.437Z,18.48
2019-04-06T03:04:16.642Z,17.32
2019-04-06T03:06:49.071Z,18.00
2019-04-06T03:09:21.207Z,19.02
2019-04-06T03:11:53.079Z,18.05
2019-04-06T03:14:25.507Z,18.32
2019-04-06T03:16:57.735Z,16.82
2019-04-06T03:19:30.301Z,18.07
2019-04-06T03:22:02.327Z,17.12
2019-04-06T03:24:34.216Z,17.85
2019-04-06T03:27:07.018Z,17.67
2019-04-06T03:29:39.237Z,17.15
2019-04-06T03:32:30.503Z,17.23
2019-04-06T03:35:03.328Z,18.27
2019-04-06T03:37:35.610Z,16.30
2019-04-06T03:40:09.182Z,16.73
2019-04-06T03:43:01.233Z,17.92
2019-04-06T03:45:33.852Z,16.82
2019-04-06T03:48:06.049Z,17.80
2019-04-06T03:50:38.183Z,17.60
2019-04-06T03:53:11.265Z,17.98
2019-04-06T03:55:43.926Z,16.75
2019-04-06T03:58:36.450Z,16.02
2019-04-06T04:01:09.010Z,15.72
2019-04-06T04:03:41.548Z,15.25
2019-04-06T04:06:13.656Z,14.18
2019-04-06T04:08:46.930Z,15.38
2019-04-06T04:11:19.066Z,15.23
2019-04-06T04:13:52.008Z,16.00
2019-04-06T04:16:24.360Z,15.25
2019-04-06T04:19:16.851Z,14.90
2019-04-06T04:21:49.013Z,16.17
2019-04-06T04:24:21.764Z,14.75
2019-04-06T04:26:53.893Z,14.90
2019-04-06T04:29:26.212Z,14.70
2019-04-06T04:31:58.121Z,14.47
2019-04-06T04:34:30.082Z,16.42
2019-04-06T04:37:02.317Z,13.55
2019-04-06T04:39:34.614Z,13.25
2019-04-06T04:42:06.529Z,13.85
2019-04-06T04:44:39.618Z,13.75
2019-04-06T04:47:32.403Z,15.13
2019-04-06T04:50:05.344Z,14.50
2019-04-06T04:52:37.334Z,13.98
2019-04-06T04:55:11.220Z,13.48
2019-04-06T04:57:45.589Z,14.30
2019-04-06T05:00:18.806Z,14.95
2019-04-06T05:02:51.112Z,14.68
2019-04-06T05:05:23.320Z,12.45
2019-04-06T05:07:55.962Z,13.62
2019-04-06T05:10:28.329Z,13.48
2019-04-06T05:13:00.615Z,13.35
2019-04-06T05:15:36.125Z,13.83
2019-04-06T05:18:08.507Z,13.88
2019-04-06T05:20:40.813Z,13.98
2019-04-06T05:23:13.083Z,13.53
2019-04-06T05:25:45.581Z,12.93
2019-04-06T05:28:18.391Z,13.68
2019-04-06T05:30:50.664Z,13.95
2019-04-06T05:33:23.416Z,14.40
2019-04-06T05:35:56.020Z,12.65
2019-04-06T05:38:28.263Z,15.23
2019-04-06T05:41:00.928Z,14.38
2019-04-06T05:43:33.043Z,14.05
2019-04-06T05:46:05.162Z,13.98
2019-04-06T05:48:38.265Z,13.68
2019-04-06T05:51:11.845Z,13.90
2019-04-06T05:53:44.454Z,14.23
2019-04-06T05:56:35.590Z,13.68
2019-04-06T05:59:20.852Z,13.53
2019-04-06T06:01:53.438Z,13.50
2019-04-06T06:04:25.980Z,15.08
2019-04-06T06:06:58.607Z,15.10
2019-04-06T06:09:30.933Z,18.52
2019-04-06T06:12:03.081Z,12.37
2019-04-06T06:14:55.833Z,14.73
2019-04-06T06:17:28.274Z,14.20
2019-04-06T06:22:50.568Z,14.47
2019-04-06T06:25:42.978Z,15.08
2019-04-06T06:28:15.605Z,13.50
2019-04-06T06:30:48.230Z,13.53
2019-04-06T06:33:20.356Z,12.15
2019-04-06T06:35:52.132Z,14.05
2019-04-06T06:38:44.729Z,13.15
2019-04-06T06:41:17.604Z,13.80
2019-04-06T06:43:49.972Z,12.95
2019-04-06T06:46:21.873Z,14.20
2019-04-06T06:48:53.934Z,13.72
2019-04-06T06:51:26.300Z,14.10
2019-04-06T06:53:58.464Z,13.98
2019-04-06T06:56:30.492Z,13.90
2019-04-06T06:59:03.586Z,14.33
2019-04-06T07:01:36.302Z,14.20
2019-04-06T07:04:08.728Z,14.63
2019-04-06T07:06:40.786Z,15.08
2019-04-06T07:09:13.563Z,13.83
2019-04-06T07:11:45.716Z,13.25
2019-04-06T07:14:17.960Z,12.78
2019-04-06T07:16:50.353Z,14.93
2019-04-06T07:19:22.633Z,13.83
2019-04-06T07:21:54.843Z,14.07
2019-04-06T07:24:29.067Z,13.60
2019-04-06T07:27:01.430Z,13.68
2019-04-06T07:29:33.966Z,13.40
2019-04-06T07:32:25.410Z,13.90
2019-04-06T07:35:01.417Z,13.72
2019-04-06T07:37:33.291Z,14.55
2019-04-06T07:40:07.148Z,12.20
2019-04-06T07:42:39.334Z,12.82
2019-04-06T07:45:12.303Z,12.25
2019-04-06T07:47:44.243Z,13.55
2019-04-06T07:50:16.368Z,12.70
2019-04-06T07:52:48.678Z,13.85
2019-04-06T07:55:20.781Z,12.90
2019-04-06T07:57:53.148Z,12.07
2019-04-06T08:00:25.578Z,14.00
2019-04-06T08:02:58.734Z,12.15
2019-04-06T08:05:30.953Z,11.90
2019-04-06T08:08:03.486Z,10.95
2019-04-06T08:10:35.398Z,10.35
2019-04-06T08:13:07.858Z,11.45
2019-04-06T08:15:39.937Z,11.33
2019-04-06T08:18:12.174Z,10.58
2019-04-06T08:20:44.916Z,11.05
2019-04-06T08:23:17.025Z,10.88
2019-04-06T08:25:49.274Z,11.80
2019-04-06T08:28:22.520Z,12.05
2019-04-06T08:30:54.594Z,13.18
2019-04-06T08:33:27.593Z,12.23
2019-04-06T08:35:59.620Z,12.45
2019-04-06T08:38:32.166Z,11.38
2019-04-06T08:41:04.711Z,11.85
2019-04-06T08:43:36.680Z,12.00
2019-04-06T08:46:08.877Z,11.25
2019-04-06T08:48:41.503Z,11.97
2019-04-06T08:51:13.937Z,12.10
2019-04-06T08:53:48.429Z,11.28
2019-04-06T08:56:20.882Z,10.38
2019-04-06T08:58:52.889Z,10.28
2019-04-06T09:01:29.074Z,11.97
2019-04-06T09:04:02.652Z,11.80
2019-04-06T09:06:35.247Z,11.08
2019-04-06T09:09:08.852Z,11.45
2019-04-06T09:11:40.980Z,12.47
2019-04-06T09:14:12.968Z,12.82
2019-04-06T09:16:45.469Z,11.73
2019-04-06T09:19:17.924Z,11.90
2019-04-06T09:21:50.121Z,11.95
2019-04-06T09:24:22.431Z,11.35
2019-04-06T09:26:55.296Z,12.43
2019-04-06T09:29:27.340Z,12.95
2019-04-06T09:31:59.759Z,13.95
2019-04-06T09:34:32.199Z,13.32
2019-04-06T09:37:04.372Z,13.83
2019-04-06T09:39:37.205Z,13.08
2019-04-06T09:42:09.509Z,12.20
2019-04-06T09:44:44.532Z,12.88
2019-04-06T09:47:18.011Z,14.23
2019-04-06T09:49:50.447Z,12.90
2019-04-06T09:52:23.752Z,14.20
2019-04-06T09:54:57.920Z,12.85
2019-04-06T09:57:31.329Z,12.98
2019-04-06T10:00:05.449Z,12.85
2019-04-06T10:02:59.271Z,12.65
2019-04-06T10:05:33.562Z,13.38
2019-04-06T10:08:07.190Z,12.60
2019-04-06T10:10:41.630Z,12.45
2019-04-06T10:13:18.583Z,12.45
2019-04-06T10:18:56.991Z,12.37
2019-04-06T10:21:31.001Z,13.10
2019-04-06T10:24:04.713Z,11.93
2019-04-06T10:26:38.768Z,14.25
2019-04-06T10:29:12.618Z,14.47
2019-04-06T10:31:47.346Z,13.68
2019-04-06T10:34:20.738Z,15.18
2019-04-06T10:36:54.680Z,14.43
2019-04-06T10:39:28.301Z,13.78
2019-04-06T10:42:01.757Z,13.62
2019-04-06T10:44:35.375Z,13.10
2019-04-06T10:47:09.217Z,13.88
2019-04-06T10:49:42.684Z,13.98
2019-04-06T10:52:17.342Z,13.72
2019-04-06T10:54:51.164Z,14.55
2019-04-06T10:57:24.975Z,13.65
2019-04-06T11:00:01.504Z,14.10
2019-04-06T11:02:34.056Z,15.98
2019-04-06T11:05:09.215Z,15.03
2019-04-06T11:07:45.094Z,16.82
2019-04-06T11:10:19.315Z,18.50
2019-04-06T11:12:52.158Z,17.62
2019-04-06T11:15:25.414Z,18.87
2019-04-06T11:17:59.252Z,19.00
2019-04-06T11:20:32.679Z,18.12
2019-04-06T11:23:06.183Z,18.15
2019-04-06T11:25:39.309Z,17.87
2019-04-06T11:28:12.788Z,19.25
2019-04-06T11:30:46.614Z,20.30
2019-04-06T11:33:18.671Z,21.62
2019-04-06T11:35:52.246Z,20.75
2019-04-06T11:38:26.678Z,22.82
2019-04-06T11:41:00.281Z,22.10
2019-04-06T11:43:34.797Z,23.55
2019-04-06T11:46:07.210Z,23.67
2019-04-06T11:48:42.283Z,23.65
2019-04-06T11:51:14.192Z,23.52
2019-04-06T11:53:45.897Z,23.22
2019-04-06T11:59:04.567Z,25.52
2019-04-06T12:01:38.403Z,25.35
2019-04-06T12:04:12.285Z,26.68
2019-04-06T12:06:44.418Z,26.25
2019-04-06T12:09:18.634Z,25.12
2019-04-06T12:12:11.559Z,25.35
2019-04-06T12:14:45.649Z,25.95
2019-04-06T12:17:22.480Z,25.62
2019-04-06T12:19:54.613Z,28.65
2019-04-06T12:22:28.745Z,28.65
2019-04-06T12:25:02.456Z,27.80
2019-04-06T12:27:56.048Z,26.75
2019-04-06T12:30:37.285Z,27.60
2019-04-06T12:33:03.891Z,24.63
2019-04-06T12:35:37.837Z,25.50
2019-04-06T12:38:11.546Z,26.73
2019-04-06T12:40:43.544Z,25.55
2019-04-06T12:43:17.106Z,25.77
2019-04-06T12:45:50.882Z,25.92
2019-04-06T12:48:24.498Z,27.20
2019-04-06T12:50:58.067Z,24.37
2019-04-06T12:53:32.869Z,24.02
2019-04-06T12:56:06.761Z,26.45
2019-04-06T12:58:40.727Z,25.55
2019-04-06T13:01:14.613Z,26.40
2019-04-06T13:03:49.672Z,26.05
2019-04-06T13:06:23.452Z,25.62
2019-04-06T13:08:57.292Z,27.40
2019-04-06T13:11:32.089Z,26.15
2019-04-06T13:14:05.660Z,26.35
2019-04-06T13:16:39.024Z,26.25
2019-04-06T13:19:12.604Z,25.97
2019-04-06T13:21:46.027Z,27.37
2019-04-06T13:24:21.095Z,27.37
2019-04-06T13:26:54.338Z,25.70
2019-04-06T13:29:47.322Z,25.55
2019-04-06T13:32:20.863Z,25.20
2019-04-06T13:34:55.057Z,25.75
2019-04-06T13:37:29.067Z,26.05
2019-04-06T13:40:01.621Z,26.73
2019-04-06T13:42:54.105Z,24.72
2019-04-06T13:45:27.874Z,24.72
2019-04-06T13:48:01.427Z,25.25
2019-04-06T13:50:36.139Z,26.40
2019-04-06T13:53:10.410Z,26.05
2019-04-06T13:55:43.972Z,25.48
2019-04-06T13:58:17.609Z,26.48
2019-04-06T14:00:52.100Z,27.45
2019-04-06T14:03:25.679Z,27.93
2019-04-06T14:05:59.357Z,26.40
2019-04-06T14:08:52.314Z,27.60
2019-04-06T14:11:25.993Z,26.33
2019-04-06T14:14:00.087Z,26.77
2019-04-06T14:16:33.862Z,27.20
2019-04-06T14:19:07.718Z,27.27
2019-04-06T14:21:41.252Z,28.83
2019-04-06T14:24:14.367Z,27.42
2019-04-06T14:26:47.620Z,27.98
2019-04-06T14:29:21.050Z,28.80
2019-04-06T14:31:54.515Z,29.70
2019-04-06T14:34:29.332Z,30.48
2019-04-06T14:37:01.721Z,29.65
2019-04-06T14:39:35.182Z,31.17
2019-04-06T14:42:09.228Z,29.55
2019-04-06T14:44:42.439Z,30.27
2019-04-06T14:47:15.957Z,32.05
2019-04-06T14:49:50.021Z,31.02
2019-04-06T14:52:26.222Z,31.93
2019-04-06T14:54:59.954Z,30.25
2019-04-06T14:57:34.748Z,29.67
2019-04-06T15:00:10.968Z,29.25
2019-04-06T15:02:44.611Z,31.45
2019-04-06T15:05:17.836Z,29.42
2019-04-06T15:07:51.302Z,36.68
2019-04-06T15:10:24.692Z,33.10
2019-04-06T15:12:57.921Z,34.05
2019-04-06T15:15:32.612Z,32.17
2019-04-06T15:18:04.235Z,33.38
2019-04-06T15:20:37.404Z,33.53
2019-04-06T15:23:12.389Z,32.63
2019-04-06T15:25:45.640Z,31.52
2019-04-06T15:28:20.840Z,32.42
2019-04-06T15:30:54.148Z,31.65
2019-04-06T15:33:27.661Z,30.80
2019-04-06T15:36:01.057Z,31.20
2019-04-06T15:38:34.324Z,32.93
2019-04-06T15:41:07.551Z,34.92
2019-04-06T15:43:41.633Z,34.10
2019-04-06T15:46:15.200Z,33.25
2019-04-06T15:48:46.779Z,35.13
2019-04-06T15:51:20.283Z,36.28
2019-04-06T15:53:53.466Z,33.35
2019-04-06T15:56:27.419Z,34.55
2019-04-06T15:59:01.058Z,34.83
2019-04-06T16:01:33.397Z,34.98
2019-04-06T16:04:06.768Z,34.43
2019-04-06T16:06:41.084Z,34.05
2019-04-06T16:09:14.513Z,34.67
2019-04-06T16:11:48.817Z,34.70
2019-04-06T16:14:22.704Z,34.18
2019-04-06T16:16:57.145Z,34.88
2019-04-06T16:19:30.372Z,32.93
2019-04-06T16:22:04.548Z,33.23
2019-04-06T16:24:38.739Z,32.85
2019-04-06T16:27:12.723Z,33.40
2019-04-06T16:29:44.872Z,31.57
2019-04-06T16:32:18.862Z,33.63
2019-04-06T16:34:52.226Z,31.60
2019-04-06T16:37:26.517Z,35.85
2019-04-06T16:39:59.988Z,33.35
2019-04-06T16:42:32.459Z,33.67
2019-04-06T16:45:06.246Z,31.42
2019-04-06T16:47:40.227Z,32.98
2019-04-06T16:50:12.256Z,30.50
2019-04-06T16:52:45.784Z,32.65
2019-04-06T16:55:19.195Z,32.65
2019-04-06T16:57:52.857Z,31.95
2019-04-06T17:00:26.251Z,30.80
2019-04-06T17:02:59.835Z,31.52
2019-04-06T17:05:31.602Z,29.40
2019-04-06T17:08:11.093Z,31.37
2019-04-06T17:10:39.717Z,29.63
2019-04-06T17:13:14.300Z,29.82
2019-04-06T17:15:48.066Z,28.90
2019-04-06T17:18:22.087Z,30.10
2019-04-06T17:20:54.240Z,29.20
2019-04-06T17:23:27.517Z,30.08
2019-04-06T17:26:02.152Z,30.15
2019-04-06T17:28:35.513Z,30.50
2019-04-06T17:31:09.379Z,31.30
2019-04-06T17:33:43.878Z,30.35
2019-04-06T17:36:17.870Z,31.07
2019-04-06T17:38:51.296Z,33.60
2019-04-06T17:41:24.914Z,33.30
2019-04-06T17:43:58.313Z,34.60
2019-04-06T17:46:32.163Z,32.73
2019-04-06T17:49:05.922Z,36.50
2019-04-06T17:51:39.956Z,34.70
2019-04-06T17:54:13.060Z,34.67
2019-04-06T17:56:46.521Z,35.48
2019-04-06T17:59:20.247Z,36.48
2019-04-06T18:01:53.647Z,36.08
2019-04-06T18:04:27.538Z,36.20
2019-04-06T18:07:01.385Z,38.17
2019-04-06T18:09:34.500Z,35.65
2019-04-06T18:12:08.397Z,38.73
2019-04-06T18:14:40.916Z,36.98
2019-04-06T18:17:13.182Z,36.63
2019-04-06T18:19:46.504Z,39.85
2019-04-06T18:22:18.404Z,39.25
2019-04-06T18:24:50.351Z,42.70
2019-04-06T18:27:23.944Z,46.80
2019-04-06T18:29:55.762Z,43.25
2019-04-06T18:32:39.528Z,44.40
2019-04-06T18:35:12.397Z,42.25
2019-04-06T18:37:46.281Z,44.30
2019-04-06T18:40:19.981Z,44.70
2019-04-06T18:42:52.927Z,42.48
2019-04-06T18:45:25.771Z,41.35
2019-04-06T18:47:57.780Z,42.35
2019-04-06T18:50:36.568Z,42.17
2019-04-06T18:53:03.685Z,40.50
2019-04-06T18:55:36.126Z,42.75
2019-04-06T18:58:12.436Z,43.35
2019-04-06T19:00:43.615Z,41.15
2019-04-06T19:03:16.813Z,40.40
2019-04-06T19:05:52.247Z,38.75
2019-04-06T19:08:24.985Z,38.88
2019-04-06T19:10:57.540Z,38.08
2019-04-06T19:13:30.055Z,38.92
2019-04-06T19:16:02.912Z,39.85
2019-04-06T19:18:35.469Z,41.05
2019-04-06T19:21:08.730Z,42.78
2019-04-06T19:23:41.161Z,41.48
2019-04-06T19:26:13.980Z,43.30
2019-04-06T19:28:46.313Z,42.98
2019-04-06T19:31:18.253Z,43.50
2019-04-06T19:33:51.159Z,44.25
2019-04-06T19:36:23.095Z,43.75
2019-04-06T19:38:55.290Z,44.95
2019-04-06T19:41:27.899Z,45.45
2019-04-06T19:44:00.105Z,44.33
2019-04-06T19:46:31.992Z,45.25
2019-04-06T19:49:04.482Z,42.65
2019-04-06T19:51:36.541Z,45.12
2019-04-06T19:54:08.727Z,43.50
2019-04-06T19:56:41.399Z,44.60
2019-04-06T19:59:13.851Z,43.78
2019-04-06T20:01:46.236Z,44.55
2019-04-06T20:04:18.354Z,43.83
2019-04-06T20:06:50.552Z,43.45
2019-04-06T20:09:23.314Z,44.20
2019-04-06T20:12:04.815Z,45.28
2019-04-06T20:14:31.701Z,44.98
2019-04-06T20:17:04.221Z,44.93
2019-04-06T20:19:37.341Z,45.35
2019-04-06T20:22:10.474Z,45.55
2019-04-06T20:24:42.873Z,42.53
2019-04-06T20:27:14.953Z,45.70
2019-04-06T20:29:47.173Z,42.85
2019-04-06T20:32:19.328Z,42.53
2019-04-06T20:34:52.269Z,44.18
2019-04-06T20:37:24.305Z,45.30
2019-04-06T20:39:56.903Z,44.33
2019-04-06T20:42:29.209Z,43.33
2019-04-06T20:45:01.740Z,44.35
2019-04-06T20:47:34.262Z,45.00
2019-04-06T20:50:09.380Z,41.45
2019-04-06T20:52:42.321Z,43.42
2019-04-06T20:55:14.510Z,44.38
2019-04-06T20:57:47.414Z,42.60
2019-04-06T21:00:20.483Z,41.92
2019-04-06T21:02:53.663Z,42.40
2019-04-06T21:05:45.353Z,41.37
2019-04-06T21:08:18.752Z,45.15
2019-04-06T21:10:50.964Z,43.48
2019-04-06T21:13:23.409Z,43.20
2019-04-06T21:15:56.621Z,44.60
2019-04-06T21:18:28.750Z,43.08
2019-04-06T21:21:01.098Z,44.83
2019-04-06T21:23:33.868Z,41.83
2019-04-06T21:26:06.111Z,43.00
2019-04-06T21:28:39.000Z,43.60
2019-04-06T21:31:11.064Z,42.93
2019-04-06T21:33:45.650Z,45.75
2019-04-06T21:36:17.480Z,45.30
2019-04-06T21:38:49.434Z,44.77
2019-04-06T21:41:21.837Z,45.45
2019-04-06T21:43:54.612Z,44.90
2019-04-06T21:46:26.713Z,45.75
2019-04-06T21:48:58.942Z,47.20
2019-04-06T21:51:32.403Z,44.88
2019-04-06T21:54:04.807Z,48.40
2019-04-06T21:56:37.449Z,47.00
2019-04-06T21:59:09.892Z,45.78
2019-04-06T22:01:43.431Z,47.88
2019-04-06T22:04:23.606Z,48.35
2019-04-06T22:06:49.863Z,47.13
2019-04-06T22:09:22.348Z,47.93
2019-04-06T22:11:54.719Z,47.17
2019-04-06T22:14:26.628Z,48.02
2019-04-06T22:16:58.581Z,47.65
2019-04-06T22:19:31.497Z,46.40
2019-04-06T22:22:03.747Z,47.03
2019-04-06T22:24:37.113Z,48.45
2019-04-06T22:27:09.657Z,48.65
2019-04-06T22:29:41.688Z,51.77
2019-04-06T22:32:15.339Z,52.38
2019-04-06T22:34:47.755Z,52.23
2019-04-06T22:37:19.868Z,53.80
2019-04-06T22:39:52.543Z,51.85
2019-04-06T22:42:24.931Z,53.68
2019-04-06T22:44:57.738Z,52.05
2019-04-06T22:47:30.116Z,54.45
2019-04-06T22:50:03.958Z,52.40
2019-04-06T22:52:36.749Z,51.50
2019-04-06T22:55:10.716Z,52.45
2019-04-06T22:57:42.703Z,52.23
2019-04-06T23:00:18.376Z,54.25
2019-04-06T23:02:52.338Z,50.08
2019-04-06T23:05:26.874Z,51.35
2019-04-06T23:07:58.990Z,51.18
2019-04-06T23:10:30.842Z,50.30
2019-04-06T23:13:03.372Z,49.83
2019-04-06T23:15:35.478Z,51.42
2019-04-06T23:18:07.393Z,49.08
2019-04-06T23:20:40.394Z,51.28
2019-04-06T23:23:32.934Z,49.10
2019-04-06T23:26:06.727Z,50.30
2019-04-06T23:28:38.926Z,48.10
2019-04-06T23:31:10.956Z,48.20
2019-04-06T23:33:43.142Z,50.35
2019-04-06T23:36:15.258Z,48.70
2019-04-06T23:38:47.262Z,50.50
2019-04-06T23:41:20.064Z,52.67
2019-04-06T23:43:52.061Z,54.75
2019-04-06T23:46:24.894Z,51.90
2019-04-06T23:48:57.846Z,50.52
2019-04-06T23:51:30.438Z,49.73
2019-04-06T23:54:03.081Z,49.93
2019-04-06T23:56:35.155Z,51.53
2019-04-06T23:59:07.244Z,51.95
